sensor_id;sensor_type;location;lat;lon;timestamp;temperature;humidity
37646;DHT22;23489;49.600;6.138;2023-02-26T00:00:25;-0.60;99.90
37646;DHT22;23489;49.600;6.138;2023-02-26T00:02:51;-0.60;99.90
37646;DHT22;23489;49.600;6.138;2023-02-26T00:05:16;-0.60;99.90
37646;DHT22;23489;49.600;6.138;2023-02-26T00:07:42;-0.70;99.90
37646;DHT22;23489;49.600;6.138;2023-02-26T00:10:10;-0.60;99.90
37646;DHT22;23489;49.600;6.138;2023-02-26T00:12:36;-0.70;99.90
37646;DHT22;23489;49.600;6.138;2023-02-26T00:15:04;-0.70;99.90
37646;DHT22;23489;49.600;6.138;2023-02-26T00:20:15;-0.80;99.90
37646;DHT22;23489;49.600;6.138;2023-02-26T00:22:42;-0.80;99.90
37646;DHT22;23489;49.600;6.138;2023-02-26T00:25:08;-0.80;99.90
37646;DHT22;23489;49.600;6.138;2023-02-26T00:27:34;-0.90;99.90
37646;DHT22;23489;49.600;6.138;2023-02-26T00:30:04;-0.90;99.90
37646;DHT22;23489;49.600;6.138;2023-02-26T00:32:30;-0.90;99.90
37646;DHT22;23489;49.600;6.138;2023-02-26T00:34:57;-1.00;99.90
37646;DHT22;23489;49.600;6.138;2023-02-26T00:42:24;-1.00;99.90
37646;DHT22;23489;49.600;6.138;2023-02-26T00:44:50;-1.00;99.90
37646;DHT22;23489;49.600;6.138;2023-02-26T00:50:18;-1.00;99.90
37646;DHT22;23489;49.600;6.138;2023-02-26T00:52:48;-1.10;99.90
37646;DHT22;23489;49.600;6.138;2023-02-26T00:55:17;-1.10;99.90
37646;DHT22;23489;49.600;6.138;2023-02-26T00:57:44;-1.20;99.90
37646;DHT22;23489;49.600;6.138;2023-02-26T01:00:11;-1.20;99.90
37646;DHT22;23489;49.600;6.138;2023-02-26T01:02:37;-1.20;99.90
37646;DHT22;23489;49.600;6.138;2023-02-26T01:05:04;-1.20;99.90
37646;DHT22;23489;49.600;6.138;2023-02-26T01:07:36;-1.20;99.90
37646;DHT22;23489;49.600;6.138;2023-02-26T01:10:04;-1.20;99.90
37646;DHT22;23489;49.600;6.138;2023-02-26T01:12:30;-1.20;99.90
37646;DHT22;23489;49.600;6.138;2023-02-26T01:14:56;-1.20;99.90
37646;DHT22;23489;49.600;6.138;2023-02-26T01:17:35;-1.30;99.90
37646;DHT22;23489;49.600;6.138;2023-02-26T01:20:15;-1.30;99.90
37646;DHT22;23489;49.600;6.138;2023-02-26T01:22:54;-1.30;99.90
37646;DHT22;23489;49.600;6.138;2023-02-26T01:25:31;-1.30;99.90
37646;DHT22;23489;49.600;6.138;2023-02-26T01:27:59;-1.30;99.90
37646;DHT22;23489;49.600;6.138;2023-02-26T01:30:25;-1.30;99.90
37646;DHT22;23489;49.600;6.138;2023-02-26T01:33:16;-1.30;99.90
37646;DHT22;23489;49.600;6.138;2023-02-26T01:35:54;-1.30;99.90
37646;DHT22;23489;49.600;6.138;2023-02-26T01:38:26;-1.30;99.90
37646;DHT22;23489;49.600;6.138;2023-02-26T01:43:38;-1.40;99.90
37646;DHT22;23489;49.600;6.138;2023-02-26T01:48:57;-1.40;99.90
37646;DHT22;23489;49.600;6.138;2023-02-26T01:51:52;-1.30;99.90
37646;DHT22;23489;49.600;6.138;2023-02-26T01:54:22;-1.30;99.90
37646;DHT22;23489;49.600;6.138;2023-02-26T01:56:56;-1.30;99.90
37646;DHT22;23489;49.600;6.138;2023-02-26T01:59:23;-1.40;99.90
37646;DHT22;23489;49.600;6.138;2023-02-26T02:01:52;-1.40;99.90
37646;DHT22;23489;49.600;6.138;2023-02-26T02:04:20;-1.40;99.90
37646;DHT22;23489;49.600;6.138;2023-02-26T02:06:47;-1.40;99.90
37646;DHT22;23489;49.600;6.138;2023-02-26T02:09:13;-1.40;99.90
37646;DHT22;23489;49.600;6.138;2023-02-26T02:11:48;-1.40;99.90
37646;DHT22;23489;49.600;6.138;2023-02-26T02:14:26;-1.40;99.90
37646;DHT22;23489;49.600;6.138;2023-02-26T02:17:07;-1.40;99.90
37646;DHT22;23489;49.600;6.138;2023-02-26T02:31:26;-1.40;99.90
37646;DHT22;23489;49.600;6.138;2023-02-26T02:36:50;-1.40;99.90
37646;DHT22;23489;49.600;6.138;2023-02-26T02:40:08;-1.40;99.90
37646;DHT22;23489;49.600;6.138;2023-02-26T02:44:42;-1.50;99.90
37646;DHT22;23489;49.600;6.138;2023-02-26T02:47:10;-1.50;99.90
37646;DHT22;23489;49.600;6.138;2023-02-26T02:49:42;-1.50;99.90
37646;DHT22;23489;49.600;6.138;2023-02-26T02:52:16;-1.50;99.90
37646;DHT22;23489;49.600;6.138;2023-02-26T02:57:52;-1.50;99.90
37646;DHT22;23489;49.600;6.138;2023-02-26T03:00:21;-1.60;99.90
37646;DHT22;23489;49.600;6.138;2023-02-26T03:02:56;-1.60;99.90
37646;DHT22;23489;49.600;6.138;2023-02-26T03:05:24;-1.60;99.90
37646;DHT22;23489;49.600;6.138;2023-02-26T03:08:21;-1.60;99.90
37646;DHT22;23489;49.600;6.138;2023-02-26T03:10:48;-1.60;99.90
37646;DHT22;23489;49.600;6.138;2023-02-26T03:13:20;-1.60;99.90
37646;DHT22;23489;49.600;6.138;2023-02-26T03:21:58;-1.60;99.90
37646;DHT22;23489;49.600;6.138;2023-02-26T03:25:05;-1.60;99.90
37646;DHT22;23489;49.600;6.138;2023-02-26T03:27:52;-1.60;99.90
37646;DHT22;23489;49.600;6.138;2023-02-26T03:30:43;-1.60;99.90
37646;DHT22;23489;49.600;6.138;2023-02-26T03:35:55;-1.70;99.90
37646;DHT22;23489;49.600;6.138;2023-02-26T03:38:43;-1.70;99.90
37646;DHT22;23489;49.600;6.138;2023-02-26T03:41:36;-1.70;99.90
37646;DHT22;23489;49.600;6.138;2023-02-26T03:44:21;-1.70;99.90
37646;DHT22;23489;49.600;6.138;2023-02-26T03:46:56;-1.70;99.90
37646;DHT22;23489;49.600;6.138;2023-02-26T03:49:31;-1.70;99.90
37646;DHT22;23489;49.600;6.138;2023-02-26T03:52:00;-1.60;99.90
37646;DHT22;23489;49.600;6.138;2023-02-26T03:55:02;-1.60;99.90
37646;DHT22;23489;49.600;6.138;2023-02-26T03:57:49;-1.60;99.90
37646;DHT22;23489;49.600;6.138;2023-02-26T04:00:26;-1.50;99.90
37646;DHT22;23489;49.600;6.138;2023-02-26T04:03:07;-1.50;99.90
37646;DHT22;23489;49.600;6.138;2023-02-26T04:05:38;-1.40;99.90
37646;DHT22;23489;49.600;6.138;2023-02-26T04:08:05;-1.40;99.90
37646;DHT22;23489;49.600;6.138;2023-02-26T04:10:37;-1.50;99.90
37646;DHT22;23489;49.600;6.138;2023-02-26T04:13:04;-1.50;99.90
37646;DHT22;23489;49.600;6.138;2023-02-26T04:15:30;-1.50;99.90
37646;DHT22;23489;49.600;6.138;2023-02-26T04:17:56;-1.50;99.90
37646;DHT22;23489;49.600;6.138;2023-02-26T04:20:21;-1.60;99.90
37646;DHT22;23489;49.600;6.138;2023-02-26T04:22:47;-1.60;99.90
37646;DHT22;23489;49.600;6.138;2023-02-26T04:25:13;-1.60;99.90
37646;DHT22;23489;49.600;6.138;2023-02-26T04:27:38;-1.60;99.90
37646;DHT22;23489;49.600;6.138;2023-02-26T04:30:05;-1.60;99.90
37646;DHT22;23489;49.600;6.138;2023-02-26T04:32:31;-1.60;99.90
37646;DHT22;23489;49.600;6.138;2023-02-26T04:34:57;-1.60;99.90
37646;DHT22;23489;49.600;6.138;2023-02-26T04:37:23;-1.70;99.90
37646;DHT22;23489;49.600;6.138;2023-02-26T04:39:48;-1.80;99.90
37646;DHT22;23489;49.600;6.138;2023-02-26T04:42:14;-1.80;99.90
37646;DHT22;23489;49.600;6.138;2023-02-26T04:44:40;-1.90;99.90
37646;DHT22;23489;49.600;6.138;2023-02-26T04:47:06;-1.90;99.90
37646;DHT22;23489;49.600;6.138;2023-02-26T04:49:33;-1.90;99.90
37646;DHT22;23489;49.600;6.138;2023-02-26T04:51:59;-1.90;99.90
37646;DHT22;23489;49.600;6.138;2023-02-26T04:54:25;-1.90;99.90
37646;DHT22;23489;49.600;6.138;2023-02-26T04:56:50;-1.90;99.90
37646;DHT22;23489;49.600;6.138;2023-02-26T04:59:16;-1.90;99.90
37646;DHT22;23489;49.600;6.138;2023-02-26T05:01:42;-1.90;99.90
37646;DHT22;23489;49.600;6.138;2023-02-26T05:04:08;-1.90;99.90
37646;DHT22;23489;49.600;6.138;2023-02-26T05:06:33;-2.00;99.90
37646;DHT22;23489;49.600;6.138;2023-02-26T05:08:59;-2.00;99.90
37646;DHT22;23489;49.600;6.138;2023-02-26T05:11:25;-2.00;99.90
37646;DHT22;23489;49.600;6.138;2023-02-26T05:13:51;-2.00;99.90
37646;DHT22;23489;49.600;6.138;2023-02-26T05:16:16;-2.10;99.90
37646;DHT22;23489;49.600;6.138;2023-02-26T05:18:42;-2.10;99.90
37646;DHT22;23489;49.600;6.138;2023-02-26T05:21:08;-2.00;99.90
37646;DHT22;23489;49.600;6.138;2023-02-26T05:23:34;-2.00;99.90
37646;DHT22;23489;49.600;6.138;2023-02-26T05:26:00;-2.00;99.90
37646;DHT22;23489;49.600;6.138;2023-02-26T05:28:26;-2.00;99.90
37646;DHT22;23489;49.600;6.138;2023-02-26T05:30:52;-2.00;99.90
37646;DHT22;23489;49.600;6.138;2023-02-26T05:33:19;-2.00;99.90
37646;DHT22;23489;49.600;6.138;2023-02-26T05:35:45;-2.00;99.90
37646;DHT22;23489;49.600;6.138;2023-02-26T05:38:11;-2.00;99.90
37646;DHT22;23489;49.600;6.138;2023-02-26T05:40:36;-2.00;99.90
37646;DHT22;23489;49.600;6.138;2023-02-26T05:43:02;-2.00;99.90
37646;DHT22;23489;49.600;6.138;2023-02-26T05:45:27;-2.00;99.90
37646;DHT22;23489;49.600;6.138;2023-02-26T05:47:53;-2.00;99.90
37646;DHT22;23489;49.600;6.138;2023-02-26T05:50:19;-2.00;99.90
37646;DHT22;23489;49.600;6.138;2023-02-26T05:52:44;-2.00;99.90
37646;DHT22;23489;49.600;6.138;2023-02-26T05:55:11;-2.00;99.90
37646;DHT22;23489;49.600;6.138;2023-02-26T05:57:37;-2.00;99.90
37646;DHT22;23489;49.600;6.138;2023-02-26T06:00:05;-2.00;99.90
37646;DHT22;23489;49.600;6.138;2023-02-26T06:02:38;-2.00;99.90
37646;DHT22;23489;49.600;6.138;2023-02-26T06:05:04;-2.00;99.90
37646;DHT22;23489;49.600;6.138;2023-02-26T06:07:30;-2.00;99.90
37646;DHT22;23489;49.600;6.138;2023-02-26T06:09:56;-2.10;99.90
37646;DHT22;23489;49.600;6.138;2023-02-26T06:12:22;-2.10;99.90
37646;DHT22;23489;49.600;6.138;2023-02-26T06:14:47;-2.10;99.90
37646;DHT22;23489;49.600;6.138;2023-02-26T06:17:13;-2.10;99.90
37646;DHT22;23489;49.600;6.138;2023-02-26T06:19:39;-2.10;99.90
37646;DHT22;23489;49.600;6.138;2023-02-26T06:22:04;-2.10;99.90
37646;DHT22;23489;49.600;6.138;2023-02-26T06:24:30;-2.10;99.90
37646;DHT22;23489;49.600;6.138;2023-02-26T06:26:56;-2.10;99.90
37646;DHT22;23489;49.600;6.138;2023-02-26T06:29:21;-2.10;99.90
37646;DHT22;23489;49.600;6.138;2023-02-26T06:31:48;-2.10;99.90
37646;DHT22;23489;49.600;6.138;2023-02-26T06:34:13;-2.10;99.90
37646;DHT22;23489;49.600;6.138;2023-02-26T06:36:39;-2.10;99.90
37646;DHT22;23489;49.600;6.138;2023-02-26T06:39:05;-2.10;99.90
37646;DHT22;23489;49.600;6.138;2023-02-26T06:41:33;-2.10;99.90
37646;DHT22;23489;49.600;6.138;2023-02-26T06:43:58;-2.10;99.90
37646;DHT22;23489;49.600;6.138;2023-02-26T06:46:24;-2.10;99.90
37646;DHT22;23489;49.600;6.138;2023-02-26T06:48:50;-2.10;99.90
37646;DHT22;23489;49.600;6.138;2023-02-26T06:51:15;-2.10;99.90
37646;DHT22;23489;49.600;6.138;2023-02-26T06:53:41;-2.10;99.90
37646;DHT22;23489;49.600;6.138;2023-02-26T06:56:07;-2.00;99.90
37646;DHT22;23489;49.600;6.138;2023-02-26T06:58:33;-2.00;99.90
37646;DHT22;23489;49.600;6.138;2023-02-26T07:00:59;-2.00;99.90
37646;DHT22;23489;49.600;6.138;2023-02-26T07:03:24;-2.00;99.90
37646;DHT22;23489;49.600;6.138;2023-02-26T07:05:50;-1.90;99.90
37646;DHT22;23489;49.600;6.138;2023-02-26T07:08:16;-1.80;99.90
37646;DHT22;23489;49.600;6.138;2023-02-26T07:10:42;-1.70;99.90
37646;DHT22;23489;49.600;6.138;2023-02-26T07:13:08;-1.70;99.90
37646;DHT22;23489;49.600;6.138;2023-02-26T07:15:33;-1.60;99.90
37646;DHT22;23489;49.600;6.138;2023-02-26T07:17:59;-1.60;99.90
37646;DHT22;23489;49.600;6.138;2023-02-26T07:20:26;-1.50;99.90
37646;DHT22;23489;49.600;6.138;2023-02-26T07:22:51;-1.50;99.90
37646;DHT22;23489;49.600;6.138;2023-02-26T07:25:17;-1.50;99.90
37646;DHT22;23489;49.600;6.138;2023-02-26T07:27:43;-1.50;99.90
37646;DHT22;23489;49.600;6.138;2023-02-26T07:30:09;-1.50;99.90
37646;DHT22;23489;49.600;6.138;2023-02-26T07:32:35;-1.40;99.90
37646;DHT22;23489;49.600;6.138;2023-02-26T07:35:01;-1.30;99.90
37646;DHT22;23489;49.600;6.138;2023-02-26T07:37:27;-1.20;99.90
37646;DHT22;23489;49.600;6.138;2023-02-26T07:39:53;-1.10;99.90
37646;DHT22;23489;49.600;6.138;2023-02-26T07:42:19;-1.00;99.90
37646;DHT22;23489;49.600;6.138;2023-02-26T07:44:45;-0.80;99.90
37646;DHT22;23489;49.600;6.138;2023-02-26T07:47:11;-0.80;99.90
37646;DHT22;23489;49.600;6.138;2023-02-26T07:49:37;-0.80;99.90
37646;DHT22;23489;49.600;6.138;2023-02-26T07:52:03;-0.80;99.90
37646;DHT22;23489;49.600;6.138;2023-02-26T07:54:29;-0.80;99.90
37646;DHT22;23489;49.600;6.138;2023-02-26T07:56:54;0.10;99.90
37646;DHT22;23489;49.600;6.138;2023-02-26T07:59:20;1.60;99.90
37646;DHT22;23489;49.600;6.138;2023-02-26T08:01:46;3.00;99.90
37646;DHT22;23489;49.600;6.138;2023-02-26T08:04:11;4.50;99.90
37646;DHT22;23489;49.600;6.138;2023-02-26T08:06:37;5.20;99.90
37646;DHT22;23489;49.600;6.138;2023-02-26T08:09:03;5.60;99.60
37646;DHT22;23489;49.600;6.138;2023-02-26T08:11:30;6.00;97.60
37646;DHT22;23489;49.600;6.138;2023-02-26T08:13:57;6.00;96.70
37646;DHT22;23489;49.600;6.138;2023-02-26T08:16:23;5.90;96.60
37646;DHT22;23489;49.600;6.138;2023-02-26T08:18:49;6.50;96.60
37646;DHT22;23489;49.600;6.138;2023-02-26T08:21:15;7.50;93.80
37646;DHT22;23489;49.600;6.138;2023-02-26T08:23:40;7.40;91.90
37646;DHT22;23489;49.600;6.138;2023-02-26T08:26:08;7.60;91.70
37646;DHT22;23489;49.600;6.138;2023-02-26T08:28:35;7.70;91.10
37646;DHT22;23489;49.600;6.138;2023-02-26T08:31:01;8.50;89.80
37646;DHT22;23489;49.600;6.138;2023-02-26T08:33:28;8.30;87.10
37646;DHT22;23489;49.600;6.138;2023-02-26T08:35:54;8.20;85.70
37646;DHT22;23489;49.600;6.138;2023-02-26T08:38:24;7.60;87.00
37646;DHT22;23489;49.600;6.138;2023-02-26T08:40:50;7.40;85.90
37646;DHT22;23489;49.600;6.138;2023-02-26T08:43:17;7.20;86.70
37646;DHT22;23489;49.600;6.138;2023-02-26T08:45:44;7.30;87.10
37646;DHT22;23489;49.600;6.138;2023-02-26T08:48:10;6.80;89.20
37646;DHT22;23489;49.600;6.138;2023-02-26T08:50:35;6.70;88.00
37646;DHT22;23489;49.600;6.138;2023-02-26T08:53:01;7.10;88.10
37646;DHT22;23489;49.600;6.138;2023-02-26T08:55:27;7.30;86.90
37646;DHT22;23489;49.600;6.138;2023-02-26T08:57:52;7.30;86.30
37646;DHT22;23489;49.600;6.138;2023-02-26T09:00:18;7.70;84.60
37646;DHT22;23489;49.600;6.138;2023-02-26T09:02:44;8.30;83.60
37646;DHT22;23489;49.600;6.138;2023-02-26T09:05:10;7.90;81.90
37646;DHT22;23489;49.600;6.138;2023-02-26T09:07:40;7.50;84.30
37646;DHT22;23489;49.600;6.138;2023-02-26T09:10:06;6.80;84.10
37646;DHT22;23489;49.600;6.138;2023-02-26T09:12:32;5.50;89.60
37646;DHT22;23489;49.600;6.138;2023-02-26T09:15:00;4.80;90.80
37646;DHT22;23489;49.600;6.138;2023-02-26T09:17:26;3.70;92.30
37646;DHT22;23489;49.600;6.138;2023-02-26T09:19:52;2.70;94.30
37646;DHT22;23489;49.600;6.138;2023-02-26T09:22:18;2.10;95.60
37646;DHT22;23489;49.600;6.138;2023-02-26T09:24:43;2.50;96.50
37646;DHT22;23489;49.600;6.138;2023-02-26T09:27:09;3.40;96.00
37646;DHT22;23489;49.600;6.138;2023-02-26T09:29:34;4.40;94.20
37646;DHT22;23489;49.600;6.138;2023-02-26T09:32:00;5.60;92.50
37646;DHT22;23489;49.600;6.138;2023-02-26T09:34:26;6.60;90.20
37646;DHT22;23489;49.600;6.138;2023-02-26T09:36:51;6.30;89.80
37646;DHT22;23489;49.600;6.138;2023-02-26T09:39:17;6.30;90.30
37646;DHT22;23489;49.600;6.138;2023-02-26T09:41:49;7.00;89.50
37646;DHT22;23489;49.600;6.138;2023-02-26T09:44:24;6.20;89.00
37646;DHT22;23489;49.600;6.138;2023-02-26T09:47:14;4.90;91.10
37646;DHT22;23489;49.600;6.138;2023-02-26T09:54:57;3.10;94.40
37646;DHT22;23489;49.600;6.138;2023-02-26T09:57:35;2.60;95.50
37646;DHT22;23489;49.600;6.138;2023-02-26T10:00:17;2.40;96.30
37646;DHT22;23489;49.600;6.138;2023-02-26T10:08:04;3.70;94.30
37646;DHT22;23489;49.600;6.138;2023-02-26T10:13:35;3.50;94.10
37646;DHT22;23489;49.600;6.138;2023-02-26T10:16:08;3.40;94.40
37646;DHT22;23489;49.600;6.138;2023-02-26T10:18:43;4.00;93.00
37646;DHT22;23489;49.600;6.138;2023-02-26T10:24:10;3.20;92.80
37646;DHT22;23489;49.600;6.138;2023-02-26T10:26:42;2.40;93.90
37646;DHT22;23489;49.600;6.138;2023-02-26T10:34:40;2.40;96.00
37646;DHT22;23489;49.600;6.138;2023-02-26T10:41:15;5.50;91.50
37646;DHT22;23489;49.600;6.138;2023-02-26T10:43:18;5.80;89.20
37646;DHT22;23489;49.600;6.138;2023-02-26T10:46:08;3.80;91.20
37646;DHT22;23489;49.600;6.138;2023-02-26T10:51:24;3.70;92.40
37646;DHT22;23489;49.600;6.138;2023-02-26T10:56:36;3.10;93.10
37646;DHT22;23489;49.600;6.138;2023-02-26T10:59:02;2.60;93.20
37646;DHT22;23489;49.600;6.138;2023-02-26T11:01:29;2.60;93.80
37646;DHT22;23489;49.600;6.138;2023-02-26T11:06:33;2.30;93.10
37646;DHT22;23489;49.600;6.138;2023-02-26T11:09:00;2.30;93.60
37646;DHT22;23489;49.600;6.138;2023-02-26T11:11:48;2.50;93.40
37646;DHT22;23489;49.600;6.138;2023-02-26T11:14:15;2.60;93.10
37646;DHT22;23489;49.600;6.138;2023-02-26T11:16:49;2.70;93.30
37646;DHT22;23489;49.600;6.138;2023-02-26T11:19:16;2.70;93.00
37646;DHT22;23489;49.600;6.138;2023-02-26T11:21:44;2.70;93.30
37646;DHT22;23489;49.600;6.138;2023-02-26T11:24:30;2.50;93.20
37646;DHT22;23489;49.600;6.138;2023-02-26T11:26:59;2.60;93.40
37646;DHT22;23489;49.600;6.138;2023-02-26T11:29:42;2.70;92.90
37646;DHT22;23489;49.600;6.138;2023-02-26T11:32:35;2.60;92.40
37646;DHT22;23489;49.600;6.138;2023-02-26T11:35:01;2.80;92.80
37646;DHT22;23489;49.600;6.138;2023-02-26T11:37:33;3.20;92.20
37646;DHT22;23489;49.600;6.138;2023-02-26T11:40:22;3.10;91.50
37646;DHT22;23489;49.600;6.138;2023-02-26T11:42:54;3.30;91.10
37646;DHT22;23489;49.600;6.138;2023-02-26T11:45:20;3.10;91.10
37646;DHT22;23489;49.600;6.138;2023-02-26T11:47:57;3.20;91.50
37646;DHT22;23489;49.600;6.138;2023-02-26T11:50:24;2.80;91.50
37646;DHT22;23489;49.600;6.138;2023-02-26T11:52:55;2.50;92.30
37646;DHT22;23489;49.600;6.138;2023-02-26T11:55:28;2.50;92.60
37646;DHT22;23489;49.600;6.138;2023-02-26T11:57:54;2.20;92.40
37646;DHT22;23489;49.600;6.138;2023-02-26T12:00:36;2.00;92.40
37646;DHT22;23489;49.600;6.138;2023-02-26T12:03:06;2.00;93.10
37646;DHT22;23489;49.600;6.138;2023-02-26T12:05:33;2.20;93.30
37646;DHT22;23489;49.600;6.138;2023-02-26T12:08:17;2.30;93.90
37646;DHT22;23489;49.600;6.138;2023-02-26T12:19:40;2.10;92.90
37646;DHT22;23489;49.600;6.138;2023-02-26T12:27:54;2.20;93.10
37646;DHT22;23489;49.600;6.138;2023-02-26T12:30:57;2.20;92.90
37646;DHT22;23489;49.600;6.138;2023-02-26T12:38:36;2.50;92.80
37646;DHT22;23489;49.600;6.138;2023-02-26T13:14:03;3.00;92.60
37646;DHT22;23489;49.600;6.138;2023-02-26T13:19:43;2.90;93.10
37646;DHT22;23489;49.600;6.138;2023-02-26T13:22:34;3.10;92.90
37646;DHT22;23489;49.600;6.138;2023-02-26T13:25:08;3.40;92.50
37646;DHT22;23489;49.600;6.138;2023-02-26T13:27:40;3.30;92.10
37646;DHT22;23489;49.600;6.138;2023-02-26T13:30:27;3.30;92.10
37646;DHT22;23489;49.600;6.138;2023-02-26T13:32:57;3.40;91.80
37646;DHT22;23489;49.600;6.138;2023-02-26T13:35:32;3.70;91.40
37646;DHT22;23489;49.600;6.138;2023-02-26T13:38:01;3.70;90.80
37646;DHT22;23489;49.600;6.138;2023-02-26T13:51:40;3.40;92.10
37646;DHT22;23489;49.600;6.138;2023-02-26T13:59:28;3.00;90.90
37646;DHT22;23489;49.600;6.138;2023-02-26T14:02:01;2.90;90.60
37646;DHT22;23489;49.600;6.138;2023-02-26T14:04:32;2.90;90.80
37646;DHT22;23489;49.600;6.138;2023-02-26T14:07:15;3.00;90.80
37646;DHT22;23489;49.600;6.138;2023-02-26T14:14:39;2.90;90.90
37646;DHT22;23489;49.600;6.138;2023-02-26T14:20:22;3.20;90.90
37646;DHT22;23489;49.600;6.138;2023-02-26T14:25:40;3.40;92.40
37646;DHT22;23489;49.600;6.138;2023-02-26T14:28:32;3.40;91.80
37646;DHT22;23489;49.600;6.138;2023-02-26T14:36:45;3.10;91.20
37646;DHT22;23489;49.600;6.138;2023-02-26T14:39:36;2.90;91.10
37646;DHT22;23489;49.600;6.138;2023-02-26T14:44:40;2.50;91.80
37646;DHT22;23489;49.600;6.138;2023-02-26T14:47:08;2.50;92.10
37646;DHT22;23489;49.600;6.138;2023-02-26T14:49:38;2.60;92.10
37646;DHT22;23489;49.600;6.138;2023-02-26T14:55:08;2.70;91.00
37646;DHT22;23489;49.600;6.138;2023-02-26T15:08:39;2.40;91.20
37646;DHT22;23489;49.600;6.138;2023-02-26T15:11:40;2.40;91.80
37646;DHT22;23489;49.600;6.138;2023-02-26T15:14:31;2.40;93.00
37646;DHT22;23489;49.600;6.138;2023-02-26T15:22:56;2.30;94.30
37646;DHT22;23489;49.600;6.138;2023-02-26T15:25:35;2.30;94.50
37646;DHT22;23489;49.600;6.138;2023-02-26T15:28:04;2.30;94.50
37646;DHT22;23489;49.600;6.138;2023-02-26T15:30:32;2.10;94.30
37646;DHT22;23489;49.600;6.138;2023-02-26T15:32:59;2.00;94.30
37646;DHT22;23489;49.600;6.138;2023-02-26T15:35:28;1.80;94.10
37646;DHT22;23489;49.600;6.138;2023-02-26T15:37:58;1.70;93.90
37646;DHT22;23489;49.600;6.138;2023-02-26T15:40:29;1.70;93.90
37646;DHT22;23489;49.600;6.138;2023-02-26T15:42:57;1.70;93.80
37646;DHT22;23489;49.600;6.138;2023-02-26T15:45:38;1.70;93.80
37646;DHT22;23489;49.600;6.138;2023-02-26T15:48:10;1.70;93.40
37646;DHT22;23489;49.600;6.138;2023-02-26T15:50:43;1.80;93.60
37646;DHT22;23489;49.600;6.138;2023-02-26T15:53:20;1.90;93.70
37646;DHT22;23489;49.600;6.138;2023-02-26T15:55:50;2.00;93.70
37646;DHT22;23489;49.600;6.138;2023-02-26T15:58:28;2.00;93.50
37646;DHT22;23489;49.600;6.138;2023-02-26T16:00:55;2.00;92.50
37646;DHT22;23489;49.600;6.138;2023-02-26T16:03:32;2.00;92.10
37646;DHT22;23489;49.600;6.138;2023-02-26T16:05:59;2.00;91.80
37646;DHT22;23489;49.600;6.138;2023-02-26T16:08:25;2.00;91.70
37646;DHT22;23489;49.600;6.138;2023-02-26T16:10:52;2.00;91.10
37646;DHT22;23489;49.600;6.138;2023-02-26T16:13:30;2.00;91.30
37646;DHT22;23489;49.600;6.138;2023-02-26T16:16:06;2.00;91.00
37646;DHT22;23489;49.600;6.138;2023-02-26T16:18:34;1.90;91.00
37646;DHT22;23489;49.600;6.138;2023-02-26T16:21:01;1.90;91.10
37646;DHT22;23489;49.600;6.138;2023-02-26T16:23:39;1.90;91.10
37646;DHT22;23489;49.600;6.138;2023-02-26T16:26:10;1.90;91.10
37646;DHT22;23489;49.600;6.138;2023-02-26T16:28:41;1.90;90.90
37646;DHT22;23489;49.600;6.138;2023-02-26T16:31:21;1.90;90.60
37646;DHT22;23489;49.600;6.138;2023-02-26T16:34:06;1.90;90.40
37646;DHT22;23489;49.600;6.138;2023-02-26T16:36:45;1.80;90.60
37646;DHT22;23489;49.600;6.138;2023-02-26T16:39:19;1.80;90.60
37646;DHT22;23489;49.600;6.138;2023-02-26T16:41:47;1.70;90.70
37646;DHT22;23489;49.600;6.138;2023-02-26T16:44:48;1.60;90.80
37646;DHT22;23489;49.600;6.138;2023-02-26T16:47:14;1.50;90.90
37646;DHT22;23489;49.600;6.138;2023-02-26T16:49:42;1.40;91.20
37646;DHT22;23489;49.600;6.138;2023-02-26T16:52:14;1.40;91.60
37646;DHT22;23489;49.600;6.138;2023-02-26T16:54:44;1.30;91.70
37646;DHT22;23489;49.600;6.138;2023-02-26T16:57:41;1.30;91.90
37646;DHT22;23489;49.600;6.138;2023-02-26T17:00:25;1.30;92.10
37646;DHT22;23489;49.600;6.138;2023-02-26T17:03:16;1.20;91.80
37646;DHT22;23489;49.600;6.138;2023-02-26T17:05:56;1.20;92.00
37646;DHT22;23489;49.600;6.138;2023-02-26T17:08:49;1.10;92.10
37646;DHT22;23489;49.600;6.138;2023-02-26T17:11:30;1.10;92.30
37646;DHT22;23489;49.600;6.138;2023-02-26T17:14:12;1.00;92.30
37646;DHT22;23489;49.600;6.138;2023-02-26T17:16:40;1.00;92.60
37646;DHT22;23489;49.600;6.138;2023-02-26T17:19:05;0.90;92.80
37646;DHT22;23489;49.600;6.138;2023-02-26T17:21:40;0.90;92.80
37646;DHT22;23489;49.600;6.138;2023-02-26T17:24:08;0.90;92.90
37646;DHT22;23489;49.600;6.138;2023-02-26T17:26:33;0.80;93.00
37646;DHT22;23489;49.600;6.138;2023-02-26T17:28:59;0.80;93.20
37646;DHT22;23489;49.600;6.138;2023-02-26T17:31:25;0.80;93.40
37646;DHT22;23489;49.600;6.138;2023-02-26T17:33:50;0.90;93.50
37646;DHT22;23489;49.600;6.138;2023-02-26T17:36:18;0.90;93.40
37646;DHT22;23489;49.600;6.138;2023-02-26T17:38:45;0.90;93.40
37646;DHT22;23489;49.600;6.138;2023-02-26T17:41:15;0.90;93.50
37646;DHT22;23489;49.600;6.138;2023-02-26T17:43:41;0.90;93.50
37646;DHT22;23489;49.600;6.138;2023-02-26T17:46:09;0.90;93.60
37646;DHT22;23489;49.600;6.138;2023-02-26T17:48:36;1.00;94.50
37646;DHT22;23489;49.600;6.138;2023-02-26T17:51:02;1.00;93.80
37646;DHT22;23489;49.600;6.138;2023-02-26T17:53:28;1.00;93.70
37646;DHT22;23489;49.600;6.138;2023-02-26T17:55:58;1.00;93.70
37646;DHT22;23489;49.600;6.138;2023-02-26T17:58:28;0.90;93.80
37646;DHT22;23489;49.600;6.138;2023-02-26T18:00:55;0.80;93.90
37646;DHT22;23489;49.600;6.138;2023-02-26T18:03:21;0.70;94.10
37646;DHT22;23489;49.600;6.138;2023-02-26T18:05:48;0.70;94.40
37646;DHT22;23489;49.600;6.138;2023-02-26T18:08:24;0.60;94.50
37646;DHT22;23489;49.600;6.138;2023-02-26T18:10:51;0.60;94.70
37646;DHT22;23489;49.600;6.138;2023-02-26T18:13:17;0.60;94.90
37646;DHT22;23489;49.600;6.138;2023-02-26T18:15:43;0.60;94.90
37646;DHT22;23489;49.600;6.138;2023-02-26T18:18:11;0.60;95.00
37646;DHT22;23489;49.600;6.138;2023-02-26T18:20:38;0.60;95.00
37646;DHT22;23489;49.600;6.138;2023-02-26T18:23:04;0.60;95.00
37646;DHT22;23489;49.600;6.138;2023-02-26T18:25:32;0.70;95.00
37646;DHT22;23489;49.600;6.138;2023-02-26T18:28:00;0.70;94.80
37646;DHT22;23489;49.600;6.138;2023-02-26T18:30:31;0.70;94.70
37646;DHT22;23489;49.600;6.138;2023-02-26T18:32:57;0.70;94.70
37646;DHT22;23489;49.600;6.138;2023-02-26T18:35:24;0.70;94.80
37646;DHT22;23489;49.600;6.138;2023-02-26T18:37:52;0.70;94.90
37646;DHT22;23489;49.600;6.138;2023-02-26T18:40:20;0.70;95.10
37646;DHT22;23489;49.600;6.138;2023-02-26T18:42:47;0.60;95.40
37646;DHT22;23489;49.600;6.138;2023-02-26T18:45:13;0.60;95.40
37646;DHT22;23489;49.600;6.138;2023-02-26T18:47:40;0.60;95.60
37646;DHT22;23489;49.600;6.138;2023-02-26T18:50:07;0.50;95.70
37646;DHT22;23489;49.600;6.138;2023-02-26T18:52:34;0.40;95.90
37646;DHT22;23489;49.600;6.138;2023-02-26T18:55:00;0.40;96.10
37646;DHT22;23489;49.600;6.138;2023-02-26T18:57:28;0.40;96.30
37646;DHT22;23489;49.600;6.138;2023-02-26T18:59:54;0.30;96.40
37646;DHT22;23489;49.600;6.138;2023-02-26T19:02:19;0.30;96.60
37646;DHT22;23489;49.600;6.138;2023-02-26T19:04:45;0.20;96.70
37646;DHT22;23489;49.600;6.138;2023-02-26T19:07:11;0.20;96.80
37646;DHT22;23489;49.600;6.138;2023-02-26T19:09:36;0.20;96.90